createdAt,value
2023-01-26T00:01:53.589Z,26.30
2023-01-26T00:04:22.072Z,26.30
2023-01-26T00:06:50.273Z,26.30
2023-01-26T00:09:18.603Z,26.10
2023-01-26T00:11:47.008Z,26.20
2023-01-26T00:14:15.222Z,26.40
2023-01-26T00:16:43.437Z,26.50
2023-01-26T00:19:11.928Z,26.60
2023-01-26T00:21:40.314Z,26.70
2023-01-26T00:24:08.705Z,26.70
2023-01-26T00:26:36.941Z,26.70
2023-01-26T00:29:05.073Z,26.80
2023-01-26T00:31:33.449Z,26.70
2023-01-26T00:34:01.718Z,26.70
2023-01-26T00:36:30.085Z,26.50
2023-01-26T00:38:58.252Z,26.40
2023-01-26T00:41:26.651Z,26.40
2023-01-26T00:43:54.808Z,26.40
2023-01-26T00:46:23.005Z,26.30
2023-01-26T00:48:51.368Z,26.20
2023-01-26T00:51:19.553Z,26.30
2023-01-26T00:53:48.149Z,26.30
2023-01-26T00:56:16.396Z,26.20
2023-01-26T00:58:44.574Z,26.30
2023-01-26T01:01:13.369Z,26.40
2023-01-26T01:03:43.607Z,26.60
2023-01-26T01:06:12.675Z,26.70
2023-01-26T01:08:41.031Z,26.80
2023-01-26T01:11:11.953Z,26.90
2023-01-26T01:13:40.441Z,26.90
2023-01-26T01:16:14.963Z,26.90
2023-01-26T01:18:44.586Z,26.90
2023-01-26T01:21:15.615Z,26.60
2023-01-26T01:23:44.640Z,26.40
2023-01-26T01:26:14.088Z,26.30
2023-01-26T01:28:43.801Z,26.20
2023-01-26T01:31:15.807Z,26.20
2023-01-26T01:33:43.778Z,26.10
2023-01-26T01:36:15.425Z,26.10
2023-01-26T01:38:44.688Z,26.00
2023-01-26T01:41:13.995Z,25.90
2023-01-26T01:43:42.673Z,25.90
2023-01-26T01:46:46.272Z,26.10
2023-01-26T01:49:40.831Z,26.40
2023-01-26T01:52:24.831Z,26.50
2023-01-26T01:55:12.778Z,26.60
2023-01-26T01:57:48.222Z,26.70
2023-01-26T02:00:22.710Z,26.70
2023-01-26T02:02:58.839Z,26.70
2023-01-26T02:05:33.069Z,26.50
2023-01-26T02:08:03.919Z,26.30
2023-01-26T02:10:33.643Z,26.20
2023-01-26T02:13:03.080Z,26.20
2023-01-26T02:15:31.704Z,26.10
2023-01-26T02:18:04.107Z,26.10
2023-01-26T02:20:44.374Z,26.00
2023-01-26T02:23:51.459Z,25.90
2023-01-26T02:26:23.409Z,25.90
2023-01-26T02:28:53.902Z,25.90
2023-01-26T02:31:24.212Z,26.20
2023-01-26T02:33:52.869Z,26.40
2023-01-26T02:36:29.420Z,26.50
2023-01-26T02:39:19.984Z,26.60
2023-01-26T02:41:50.084Z,26.50
2023-01-26T02:44:18.910Z,26.50
2023-01-26T02:46:47.148Z,26.40
2023-01-26T02:49:17.173Z,26.10
2023-01-26T02:51:45.609Z,26.00
2023-01-26T02:54:13.754Z,25.80
2023-01-26T02:56:42.014Z,25.80
2023-01-26T02:59:10.351Z,25.70
2023-01-26T03:01:38.626Z,25.80
2023-01-26T03:04:07.116Z,25.70
2023-01-26T03:06:35.311Z,25.70
2023-01-26T03:09:03.603Z,25.70
2023-01-26T03:11:31.939Z,25.70
2023-01-26T03:14:00.206Z,25.90
2023-01-26T03:16:28.632Z,26.10
2023-01-26T03:18:56.984Z,26.20
2023-01-26T03:21:25.279Z,26.20
2023-01-26T03:23:53.593Z,26.30
2023-01-26T03:26:23.421Z,26.30
2023-01-26T03:28:51.667Z,26.20
2023-01-26T03:31:19.908Z,26.30
2023-01-26T03:33:48.717Z,26.10
2023-01-26T03:36:17.012Z,25.90
2023-01-26T03:38:45.560Z,25.80
2023-01-26T03:41:14.318Z,25.70
2023-01-26T03:43:42.574Z,25.70
2023-01-26T03:46:11.198Z,25.70
2023-01-26T03:48:39.707Z,25.70
2023-01-26T03:51:08.268Z,25.70
2023-01-26T03:53:36.461Z,25.70
2023-01-26T03:56:09.328Z,25.70
2023-01-26T03:58:37.619Z,25.80
2023-01-26T04:01:06.082Z,26.10
2023-01-26T04:03:34.611Z,26.20
2023-01-26T04:06:16.352Z,26.30
2023-01-26T04:08:49.034Z,26.30
2023-01-26T04:11:17.836Z,26.30
2023-01-26T04:13:46.233Z,26.30
2023-01-26T04:16:21.984Z,26.20
2023-01-26T04:18:50.370Z,26.10
2023-01-26T04:21:18.700Z,25.90
2023-01-26T04:23:47.483Z,25.90
2023-01-26T04:26:16.194Z,25.80
2023-01-26T04:28:45.019Z,25.70
2023-01-26T04:31:13.447Z,25.60
2023-01-26T04:33:41.750Z,25.60
2023-01-26T04:36:11.294Z,25.70
2023-01-26T04:38:43.964Z,25.70
2023-01-26T04:41:14.976Z,25.70
2023-01-26T04:43:48.077Z,25.70
2023-01-26T04:46:17.117Z,25.90
2023-01-26T04:48:45.464Z,25.90
2023-01-26T04:51:16.991Z,26.10
2023-01-26T04:53:45.396Z,26.10
2023-01-26T04:56:23.176Z,26.00
2023-01-26T04:58:53.519Z,25.90
2023-01-26T05:01:23.155Z,25.80
2023-01-26T05:03:52.127Z,25.70
2023-01-26T05:06:20.657Z,25.70
2023-01-26T05:08:50.838Z,25.60
2023-01-26T05:11:19.678Z,25.60
2023-01-26T05:14:01.595Z,25.60
2023-01-26T05:16:52.934Z,25.60
2023-01-26T05:19:41.028Z,25.60
2023-01-26T05:22:32.060Z,25.50
2023-01-26T05:25:18.606Z,25.80
2023-01-26T05:28:09.011Z,26.00
2023-01-26T05:30:37.302Z,26.10
2023-01-26T05:33:08.131Z,26.20
2023-01-26T05:35:36.863Z,26.20
2023-01-26T05:38:08.514Z,26.20
2023-01-26T05:40:36.719Z,26.00
2023-01-26T05:43:05.451Z,25.70
2023-01-26T05:45:51.913Z,25.60
2023-01-26T05:48:21.927Z,25.60
2023-01-26T05:50:52.843Z,25.50
2023-01-26T05:53:22.294Z,25.50
2023-01-26T05:55:50.652Z,25.50
2023-01-26T05:58:22.778Z,25.50
2023-01-26T06:00:51.202Z,25.50
2023-01-26T06:03:25.871Z,25.50
2023-01-26T06:05:55.792Z,25.60
2023-01-26T06:08:33.519Z,25.70
2023-01-26T06:11:22.030Z,26.00
2023-01-26T06:14:10.729Z,26.10
2023-01-26T06:16:39.258Z,26.20
2023-01-26T06:19:11.251Z,26.10
2023-01-26T06:21:40.573Z,26.10
2023-01-26T06:24:08.992Z,25.90
2023-01-26T06:26:37.357Z,25.70
2023-01-26T06:29:05.985Z,25.60
2023-01-26T06:31:37.880Z,25.60
2023-01-26T06:34:07.374Z,25.50
2023-01-26T06:36:39.273Z,25.50
2023-01-26T06:39:12.199Z,25.50
2023-01-26T06:41:43.921Z,25.40
2023-01-26T06:44:12.519Z,25.50
2023-01-26T06:46:41.329Z,25.60
2023-01-26T06:49:10.690Z,25.60
2023-01-26T06:51:44.536Z,25.60
2023-01-26T06:54:15.372Z,25.90
2023-01-26T06:57:01.867Z,26.00
2023-01-26T06:59:52.800Z,26.20
2023-01-26T07:02:45.999Z,26.30
2023-01-26T07:05:14.288Z,26.20
2023-01-26T07:07:42.416Z,26.00
2023-01-26T07:10:11.534Z,25.90
2023-01-26T07:12:45.283Z,25.80
2023-01-26T07:15:14.179Z,25.80
2023-01-26T07:17:42.733Z,25.80
2023-01-26T07:20:11.897Z,25.70
2023-01-26T07:22:40.291Z,25.70
2023-01-26T07:25:08.980Z,25.70
2023-01-26T07:27:37.337Z,25.70
2023-01-26T07:30:06.143Z,25.90
2023-01-26T07:32:34.507Z,26.10
2023-01-26T07:35:02.794Z,26.10
2023-01-26T07:37:31.386Z,26.30
2023-01-26T07:39:59.818Z,26.10
2023-01-26T07:42:28.264Z,26.00
2023-01-26T07:45:10.231Z,26.10
2023-01-26T07:47:38.529Z,26.10
2023-01-26T07:50:06.994Z,26.30
2023-01-26T07:52:35.252Z,26.60
2023-01-26T07:55:03.642Z,26.90
2023-01-26T07:57:31.977Z,27.10
2023-01-26T08:00:00.418Z,28.00
2023-01-26T08:02:28.707Z,28.20
2023-01-26T08:04:56.985Z,28.50
2023-01-26T08:07:25.328Z,28.80
2023-01-26T08:09:53.596Z,28.90
2023-01-26T08:12:21.971Z,29.10
2023-01-26T08:14:50.370Z,29.30
2023-01-26T08:17:19.186Z,30.00
2023-01-26T08:19:48.236Z,31.40
2023-01-26T08:22:16.528Z,33.10
2023-01-26T08:24:44.824Z,34.00
2023-01-26T08:27:13.105Z,34.20
2023-01-26T08:29:41.394Z,34.70
2023-01-26T08:32:10.190Z,34.90
2023-01-26T08:34:38.385Z,35.40
2023-01-26T08:37:06.571Z,35.40
2023-01-26T08:39:34.907Z,35.70
2023-01-26T08:42:03.409Z,36.00
2023-01-26T08:44:31.604Z,36.50
2023-01-26T08:46:59.993Z,36.50
2023-01-26T08:49:28.288Z,36.90
2023-01-26T08:51:56.476Z,36.60
2023-01-26T08:54:24.819Z,38.00
2023-01-26T08:56:53.117Z,38.60
2023-01-26T08:59:21.414Z,38.90
2023-01-26T09:01:51.230Z,38.70
2023-01-26T09:04:19.547Z,37.40
2023-01-26T09:06:47.822Z,35.20
2023-01-26T09:09:16.134Z,36.40
2023-01-26T09:11:44.347Z,36.40
2023-01-26T09:14:12.639Z,36.70
2023-01-26T09:16:42.465Z,37.60
2023-01-26T09:19:10.737Z,38.80
2023-01-26T09:21:39.012Z,38.40
2023-01-26T09:24:07.661Z,35.40
2023-01-26T09:26:35.793Z,34.20
2023-01-26T09:29:04.317Z,33.70
2023-01-26T09:31:32.671Z,32.90
2023-01-26T09:34:00.960Z,33.10
2023-01-26T09:36:29.425Z,32.90
2023-01-26T09:38:57.531Z,33.20
2023-01-26T09:41:50.315Z,33.30
2023-01-26T09:44:27.625Z,33.50
2023-01-26T09:47:52.947Z,33.40
2023-01-26T09:50:44.262Z,33.20
2023-01-26T09:53:25.549Z,32.90
2023-01-26T09:55:56.393Z,32.90
2023-01-26T09:58:39.226Z,32.80
2023-01-26T10:01:21.491Z,32.70
2023-01-26T10:04:05.923Z,32.80
2023-01-26T10:06:34.989Z,32.70
2023-01-26T10:09:31.670Z,32.60
2023-01-26T10:12:05.523Z,32.80
2023-01-26T10:14:38.179Z,32.80
2023-01-26T10:17:11.003Z,32.60
2023-01-26T10:19:49.047Z,32.60
2023-01-26T10:22:28.211Z,32.30
2023-01-26T10:25:00.300Z,32.50
2023-01-26T10:27:34.304Z,32.00
2023-01-26T10:30:02.708Z,31.70
2023-01-26T10:32:32.641Z,31.70
2023-01-26T10:35:01.002Z,32.10
2023-01-26T10:37:32.295Z,31.80
2023-01-26T10:40:08.087Z,31.80
2023-01-26T10:42:37.528Z,31.80
2023-01-26T10:45:27.120Z,32.20
2023-01-26T10:48:22.671Z,32.30
2023-01-26T10:50:51.966Z,32.00
2023-01-26T10:53:27.941Z,32.00
2023-01-26T10:56:14.961Z,32.00
2023-01-26T10:58:46.282Z,32.00
2023-01-26T11:01:18.804Z,32.20
2023-01-26T11:04:08.181Z,32.10
2023-01-26T11:06:36.740Z,32.00
2023-01-26T11:09:28.457Z,32.00
2023-01-26T11:12:05.715Z,32.30
2023-01-26T11:14:34.598Z,32.60
2023-01-26T11:17:26.097Z,32.70
2023-01-26T11:20:09.482Z,32.20
2023-01-26T11:22:52.421Z,32.10
2023-01-26T11:25:35.511Z,32.50
2023-01-26T11:28:21.894Z,32.50
2023-01-26T11:30:50.465Z,32.40
2023-01-26T11:33:27.554Z,32.30
2023-01-26T11:36:09.312Z,32.20
2023-01-26T11:39:05.925Z,32.10
2023-01-26T11:41:46.103Z,32.20
2023-01-26T11:44:23.125Z,32.40
2023-01-26T11:47:15.746Z,32.50
2023-01-26T11:49:56.718Z,32.30
2023-01-26T11:52:57.392Z,32.20
2023-01-26T11:55:53.244Z,32.20
2023-01-26T11:58:31.849Z,31.80
2023-01-26T12:01:10.905Z,31.20
2023-01-26T12:03:48.005Z,31.20
2023-01-26T12:06:32.721Z,31.50
2023-01-26T12:09:05.923Z,31.50
2023-01-26T12:11:46.662Z,31.60
2023-01-26T12:14:30.594Z,31.20
2023-01-26T12:17:36.054Z,31.40
2023-01-26T12:20:40.596Z,31.60
2023-01-26T12:23:14.817Z,31.60
2023-01-26T12:26:00.793Z,31.50
2023-01-26T12:28:34.924Z,31.30
2023-01-26T12:31:23.033Z,31.70
2023-01-26T12:33:55.203Z,32.00
2023-01-26T12:36:26.450Z,32.00
2023-01-26T12:39:04.019Z,32.00
2023-01-26T12:42:03.990Z,31.70
2023-01-26T12:44:43.724Z,31.80
2023-01-26T12:47:36.149Z,32.20
2023-01-26T12:50:40.395Z,31.90
2023-01-26T12:53:15.067Z,31.50
2023-01-26T12:55:57.196Z,31.60
2023-01-26T12:58:30.566Z,31.60
2023-01-26T13:01:10.251Z,31.90
2023-01-26T13:03:52.716Z,31.70
2023-01-26T13:06:23.957Z,31.40
2023-01-26T13:09:18.714Z,31.80
2023-01-26T13:11:48.613Z,31.80
2023-01-26T13:14:29.145Z,31.60
2023-01-26T13:16:58.748Z,31.50
2023-01-26T13:19:45.342Z,31.50
2023-01-26T13:22:19.823Z,31.50
2023-01-26T13:24:50.059Z,31.10
2023-01-26T13:27:41.154Z,31.00
2023-01-26T13:30:24.747Z,30.90
2023-01-26T13:32:54.390Z,30.90
2023-01-26T13:35:25.819Z,30.80
2023-01-26T13:37:57.809Z,30.80
2023-01-26T13:40:37.534Z,30.80
2023-01-26T13:43:27.078Z,31.50
2023-01-26T13:46:24.675Z,31.20
2023-01-26T13:48:55.602Z,30.80
2023-01-26T13:51:25.448Z,30.90
2023-01-26T13:54:08.089Z,31.20
2023-01-26T13:56:37.279Z,31.20
2023-01-26T13:59:19.324Z,31.00
2023-01-26T14:01:49.899Z,30.60
2023-01-26T14:04:26.898Z,31.00
2023-01-26T14:07:14.258Z,31.20
2023-01-26T14:09:53.673Z,30.80
2023-01-26T14:12:46.803Z,31.00
2023-01-26T14:15:25.264Z,30.80
2023-01-26T14:18:01.703Z,31.00
2023-01-26T14:20:37.783Z,30.60
2023-01-26T14:23:09.405Z,30.70
2023-01-26T14:25:38.960Z,30.50
2023-01-26T14:28:10.870Z,30.40
2023-01-26T14:30:39.468Z,30.40
2023-01-26T14:33:12.952Z,31.00
2023-01-26T14:35:43.086Z,31.10
2023-01-26T14:38:18.112Z,30.80
2023-01-26T14:40:48.311Z,30.80
2023-01-26T14:43:17.379Z,30.80
2023-01-26T14:46:05.397Z,31.00
2023-01-26T14:48:38.477Z,31.00
2023-01-26T14:51:14.070Z,30.50
2023-01-26T14:53:48.749Z,30.80
2023-01-26T14:56:20.842Z,30.70
2023-01-26T14:58:53.352Z,30.40
2023-01-26T15:01:24.740Z,30.30
2023-01-26T15:04:00.262Z,30.50
2023-01-26T15:06:31.416Z,30.20
2023-01-26T15:09:20.813Z,30.20
2023-01-26T15:12:00.153Z,30.20
2023-01-26T15:14:58.885Z,30.60
2023-01-26T15:17:40.407Z,30.60
2023-01-26T15:20:24.169Z,30.60
2023-01-26T15:22:54.248Z,30.20
2023-01-26T15:25:25.841Z,30.50
2023-01-26T15:28:01.315Z,30.80
2023-01-26T15:30:38.511Z,30.50
2023-01-26T15:33:06.792Z,30.40
2023-01-26T15:35:35.888Z,30.10
2023-01-26T15:38:11.752Z,30.10
2023-01-26T15:40:41.179Z,30.20
2023-01-26T15:43:13.349Z,30.30
2023-01-26T15:45:53.064Z,30.10
2023-01-26T15:48:26.983Z,30.00
2023-01-26T15:50:55.387Z,30.00
2023-01-26T15:53:23.972Z,30.10
2023-01-26T15:55:53.138Z,30.40
2023-01-26T15:58:21.724Z,30.10
2023-01-26T16:00:50.970Z,30.30
2023-01-26T16:03:21.055Z,30.00
2023-01-26T16:05:50.153Z,29.70
2023-01-26T16:08:19.273Z,29.70
2023-01-26T16:10:48.249Z,29.50
2023-01-26T16:13:19.002Z,29.80
2023-01-26T16:15:52.665Z,30.00
2023-01-26T16:18:21.592Z,29.80
2023-01-26T16:20:50.666Z,30.00
2023-01-26T16:23:28.684Z,29.90
2023-01-26T16:25:57.152Z,29.90
2023-01-26T16:28:25.644Z,29.80
2023-01-26T16:30:54.085Z,29.70
2023-01-26T16:33:22.496Z,29.90
2023-01-26T16:35:50.901Z,29.80
2023-01-26T16:38:19.621Z,29.70
2023-01-26T16:40:49.646Z,29.90
2023-01-26T16:43:26.859Z,29.80
2023-01-26T16:45:55.749Z,29.60
2023-01-26T16:48:24.680Z,29.80
2023-01-26T16:50:54.282Z,29.80
2023-01-26T16:53:31.405Z,29.70
2023-01-26T16:56:00.129Z,29.30
2023-01-26T16:58:28.787Z,29.20
2023-01-26T17:00:58.995Z,29.30
2023-01-26T17:03:27.864Z,29.30
2023-01-26T17:08:10.253Z,29.50
2023-01-26T17:10:51.888Z,28.90
2023-01-26T17:13:27.553Z,28.80
2023-01-26T17:15:57.820Z,28.70
2023-01-26T17:18:26.791Z,28.70
2023-01-26T17:21:02.387Z,28.80
2023-01-26T17:23:31.211Z,28.90
2023-01-26T17:25:59.987Z,29.00
2023-01-26T17:28:28.616Z,29.30
2023-01-26T17:31:01.146Z,29.50
2023-01-26T17:33:30.309Z,29.40
2023-01-26T17:36:02.753Z,29.00
2023-01-26T17:38:31.278Z,29.00
2023-01-26T17:41:00.351Z,29.00
2023-01-26T17:43:29.564Z,28.90
2023-01-26T17:46:11.045Z,28.80
2023-01-26T17:48:40.349Z,28.90
2023-01-26T17:51:09.960Z,29.10
2023-01-26T17:53:39.803Z,29.00
2023-01-26T17:56:13.643Z,29.00
2023-01-26T17:58:42.241Z,28.60
2023-01-26T18:01:11.184Z,28.70
2023-01-26T18:03:43.292Z,28.50
2023-01-26T18:06:11.735Z,28.60
2023-01-26T18:08:40.457Z,28.60
2023-01-26T18:11:10.911Z,28.70
2023-01-26T18:13:39.608Z,28.50
2023-01-26T18:16:10.808Z,28.40
2023-01-26T18:18:39.252Z,28.40
2023-01-26T18:21:19.251Z,28.50
2023-01-26T18:23:49.234Z,28.50
2023-01-26T18:26:18.990Z,28.20
2023-01-26T18:28:47.473Z,28.00
2023-01-26T18:31:19.216Z,28.00
2023-01-26T18:33:48.196Z,28.00
2023-01-26T18:36:18.948Z,28.30
2023-01-26T18:38:53.106Z,28.20
2023-01-26T18:41:23.619Z,28.40
2023-01-26T18:43:53.518Z,28.40
2023-01-26T18:46:22.918Z,28.10
2023-01-26T18:48:54.312Z,27.80
2023-01-26T18:51:23.009Z,27.60
2023-01-26T18:53:51.210Z,27.50
2023-01-26T18:56:19.583Z,27.50
2023-01-26T18:58:47.870Z,27.60
2023-01-26T19:01:17.077Z,27.50
2023-01-26T19:03:45.595Z,27.40
2023-01-26T19:06:15.295Z,27.20
2023-01-26T19:08:43.563Z,27.30
2023-01-26T19:11:11.929Z,27.60
2023-01-26T19:13:41.846Z,27.80
2023-01-26T19:16:10.762Z,27.90
2023-01-26T19:18:39.151Z,27.70
2023-01-26T19:21:07.421Z,27.80
2023-01-26T19:23:35.614Z,27.90
2023-01-26T19:26:11.298Z,28.10
2023-01-26T19:28:39.826Z,28.00
2023-01-26T19:31:08.887Z,27.80
2023-01-26T19:33:39.367Z,27.70
2023-01-26T19:36:10.237Z,27.50
2023-01-26T19:38:40.337Z,27.40
2023-01-26T19:41:08.610Z,27.40
2023-01-26T19:43:37.072Z,27.20
2023-01-26T19:46:06.164Z,27.10
2023-01-26T19:48:34.387Z,27.10
2023-01-26T19:51:14.150Z,27.10
2023-01-26T19:53:45.885Z,27.20
2023-01-26T19:56:14.416Z,27.20
2023-01-26T19:58:42.892Z,27.40
2023-01-26T20:01:15.179Z,27.50
2023-01-26T20:03:44.003Z,27.50
2023-01-26T20:06:17.372Z,27.60
2023-01-26T20:08:46.183Z,27.60
2023-01-26T20:11:14.786Z,27.50
2023-01-26T20:13:43.949Z,27.40
2023-01-26T20:16:12.363Z,27.50
2023-01-26T20:18:40.947Z,27.60
2023-01-26T20:21:09.286Z,27.70
2023-01-26T20:23:45.563Z,27.50
2023-01-26T20:26:20.051Z,27.50
2023-01-26T20:28:48.569Z,27.40
2023-01-26T20:31:22.839Z,27.40
2023-01-26T20:33:53.414Z,27.50
2023-01-26T20:36:24.506Z,27.60
2023-01-26T20:38:54.039Z,27.50
2023-01-26T20:41:25.182Z,27.50
2023-01-26T20:44:01.086Z,27.40
2023-01-26T20:46:32.784Z,27.40
2023-01-26T20:49:02.024Z,27.50
2023-01-26T20:51:33.489Z,27.50
2023-01-26T20:54:03.379Z,27.30
2023-01-26T20:56:31.802Z,27.20
2023-01-26T20:59:00.129Z,27.10
2023-01-26T21:01:28.904Z,27.10
2023-01-26T21:03:57.143Z,27.10
2023-01-26T21:06:25.662Z,27.10
2023-01-26T21:08:56.562Z,27.10
2023-01-26T21:11:28.660Z,27.00
2023-01-26T21:13:58.559Z,27.00
2023-01-26T21:16:27.037Z,27.30
2023-01-26T21:18:55.664Z,27.50
2023-01-26T21:21:24.462Z,27.50
2023-01-26T21:23:52.831Z,27.60
2023-01-26T21:26:23.731Z,27.50
2023-01-26T21:28:57.207Z,27.50
2023-01-26T21:31:27.701Z,27.60
2023-01-26T21:33:57.030Z,27.60
2023-01-26T21:36:30.842Z,27.50
2023-01-26T21:39:00.936Z,27.60
2023-01-26T21:41:31.901Z,27.60
2023-01-26T21:44:07.943Z,27.50
2023-01-26T21:46:42.311Z,27.50
2023-01-26T21:49:11.092Z,27.60
2023-01-26T21:51:39.321Z,27.60
2023-01-26T21:54:08.152Z,27.50
2023-01-26T21:56:36.689Z,27.50
2023-01-26T21:59:08.436Z,27.50
2023-01-26T22:01:47.900Z,27.40
2023-01-26T22:04:22.142Z,27.20
2023-01-26T22:06:50.733Z,27.00
2023-01-26T22:09:19.990Z,26.90
2023-01-26T22:11:48.341Z,26.90
2023-01-26T22:14:20.276Z,26.80
2023-01-26T22:16:49.071Z,26.80
2023-01-26T22:19:17.363Z,26.80
2023-01-26T22:21:45.807Z,26.80
2023-01-26T22:24:15.103Z,26.80
2023-01-26T22:26:43.451Z,27.00
2023-01-26T22:29:12.945Z,27.10
2023-01-26T22:31:41.414Z,27.20
2023-01-26T22:34:10.606Z,27.30
2023-01-26T22:36:39.608Z,27.20
2023-01-26T22:39:08.005Z,27.30
2023-01-26T22:41:36.352Z,27.30
2023-01-26T22:44:04.892Z,27.30
2023-01-26T22:46:33.589Z,27.30
2023-01-26T22:49:02.103Z,27.40
2023-01-26T22:51:39.352Z,27.40
2023-01-26T22:54:07.857Z,27.10
2023-01-26T22:56:36.205Z,26.90
2023-01-26T22:59:04.385Z,26.80
2023-01-26T23:01:33.707Z,26.80
2023-01-26T23:04:02.355Z,26.80
2023-01-26T23:06:30.737Z,26.80
2023-01-26T23:08:59.309Z,26.80
2023-01-26T23:11:29.534Z,26.80
2023-01-26T23:13:59.539Z,26.70
2023-01-26T23:16:28.816Z,26.90
2023-01-26T23:18:59.143Z,27.10
2023-01-26T23:21:28.955Z,27.20
2023-01-26T23:23:57.974Z,27.20
2023-01-26T23:26:26.433Z,27.20
2023-01-26T23:28:54.822Z,27.10
2023-01-26T23:31:23.847Z,27.20
2023-01-26T23:33:52.162Z,27.20
2023-01-26T23:36:20.627Z,27.30
2023-01-26T23:38:48.940Z,27.30
2023-01-26T23:41:17.870Z,27.30
2023-01-26T23:43:46.689Z,27.30
2023-01-26T23:46:15.079Z,27.30
2023-01-26T23:48:43.538Z,27.30
2023-01-26T23:51:12.928Z,27.10
2023-01-26T23:53:41.753Z,26.90
2023-01-26T23:56:18.469Z,26.90
2023-01-26T23:58:46.680Z,26.80
